sensor_id;sensor_type;location;lat;lon;timestamp;P1;durP1;ratioP1;P2;durP2;ratioP2
25962;SDS011;13760;52.588;13.406;2023-04-27T00:01:09;10.07;;;3.13;;
25962;SDS011;13760;52.588;13.406;2023-04-27T00:03:38;8.00;;;2.90;;
25962;SDS011;13760;52.588;13.406;2023-04-27T00:06:04;12.57;;;3.40;;
25962;SDS011;13760;52.588;13.406;2023-04-27T00:08:29;9.65;;;3.22;;
25962;SDS011;13760;52.588;13.406;2023-04-27T00:10:56;10.05;;;3.08;;
25962;SDS011;13760;52.588;13.406;2023-04-27T00:13:21;6.20;;;2.85;;
25962;SDS011;13760;52.588;13.406;2023-04-27T00:15:47;10.15;;;3.45;;
25962;SDS011;13760;52.588;13.406;2023-04-27T00:18:12;7.85;;;2.72;;
25962;SDS011;13760;52.588;13.406;2023-04-27T00:20:38;9.82;;;2.60;;
25962;SDS011;13760;52.588;13.406;2023-04-27T00:23:04;9.13;;;3.00;;
25962;SDS011;13760;52.588;13.406;2023-04-27T00:25:30;8.13;;;2.85;;
25962;SDS011;13760;52.588;13.406;2023-04-27T00:27:56;6.40;;;2.70;;
25962;SDS011;13760;52.588;13.406;2023-04-27T00:30:22;7.53;;;3.35;;
25962;SDS011;13760;52.588;13.406;2023-04-27T00:32:47;8.02;;;2.90;;
25962;SDS011;13760;52.588;13.406;2023-04-27T00:35:13;10.45;;;2.92;;
25962;SDS011;13760;52.588;13.406;2023-04-27T00:37:38;9.07;;;2.90;;
25962;SDS011;13760;52.588;13.406;2023-04-27T00:40:04;6.35;;;3.17;;
25962;SDS011;13760;52.588;13.406;2023-04-27T00:42:31;9.48;;;3.45;;
25962;SDS011;13760;52.588;13.406;2023-04-27T00:44:57;8.80;;;3.00;;
25962;SDS011;13760;52.588;13.406;2023-04-27T00:47:23;9.93;;;3.03;;
25962;SDS011;13760;52.588;13.406;2023-04-27T00:49:49;9.65;;;3.30;;
25962;SDS011;13760;52.588;13.406;2023-04-27T00:52:15;7.43;;;2.80;;
25962;SDS011;13760;52.588;13.406;2023-04-27T00:54:41;8.70;;;3.00;;
25962;SDS011;13760;52.588;13.406;2023-04-27T00:57:10;6.55;;;3.05;;
25962;SDS011;13760;52.588;13.406;2023-04-27T00:59:35;9.90;;;2.95;;
25962;SDS011;13760;52.588;13.406;2023-04-27T01:02:01;12.02;;;3.10;;
25962;SDS011;13760;52.588;13.406;2023-04-27T01:04:27;11.80;;;3.63;;
25962;SDS011;13760;52.588;13.406;2023-04-27T01:06:53;9.32;;;3.05;;
25962;SDS011;13760;52.588;13.406;2023-04-27T01:09:19;5.80;;;3.28;;
25962;SDS011;13760;52.588;13.406;2023-04-27T01:11:45;8.77;;;2.90;;
25962;SDS011;13760;52.588;13.406;2023-04-27T01:14:11;8.45;;;3.30;;
25962;SDS011;13760;52.588;13.406;2023-04-27T01:16:36;9.70;;;3.53;;
25962;SDS011;13760;52.588;13.406;2023-04-27T01:19:02;11.63;;;3.40;;
25962;SDS011;13760;52.588;13.406;2023-04-27T01:21:28;15.00;;;3.72;;
25962;SDS011;13760;52.588;13.406;2023-04-27T01:23:54;7.30;;;3.60;;
25962;SDS011;13760;52.588;13.406;2023-04-27T01:26:20;10.13;;;3.70;;
25962;SDS011;13760;52.588;13.406;2023-04-27T01:28:46;11.25;;;3.47;;
25962;SDS011;13760;52.588;13.406;2023-04-27T01:31:12;10.35;;;3.78;;
25962;SDS011;13760;52.588;13.406;2023-04-27T01:33:38;10.27;;;3.80;;
25962;SDS011;13760;52.588;13.406;2023-04-27T01:36:04;8.68;;;3.03;;
25962;SDS011;13760;52.588;13.406;2023-04-27T01:38:33;10.48;;;3.80;;
25962;SDS011;13760;52.588;13.406;2023-04-27T01:41:00;14.32;;;4.38;;
25962;SDS011;13760;52.588;13.406;2023-04-27T01:43:28;11.63;;;3.45;;
25962;SDS011;13760;52.588;13.406;2023-04-27T01:45:55;10.55;;;3.72;;
25962;SDS011;13760;52.588;13.406;2023-04-27T01:48:21;9.02;;;3.50;;
25962;SDS011;13760;52.588;13.406;2023-04-27T01:50:46;8.88;;;3.47;;
25962;SDS011;13760;52.588;13.406;2023-04-27T01:53:12;7.38;;;3.28;;
25962;SDS011;13760;52.588;13.406;2023-04-27T01:55:38;13.18;;;3.90;;
25962;SDS011;13760;52.588;13.406;2023-04-27T01:58:03;8.25;;;3.28;;
25962;SDS011;13760;52.588;13.406;2023-04-27T02:00:29;10.52;;;3.33;;
25962;SDS011;13760;52.588;13.406;2023-04-27T02:02:54;8.43;;;2.92;;
25962;SDS011;13760;52.588;13.406;2023-04-27T02:05:22;12.15;;;3.28;;
25962;SDS011;13760;52.588;13.406;2023-04-27T02:07:48;7.57;;;3.33;;
25962;SDS011;13760;52.588;13.406;2023-04-27T02:10:14;10.32;;;3.40;;
25962;SDS011;13760;52.588;13.406;2023-04-27T02:12:40;6.28;;;3.00;;
25962;SDS011;13760;52.588;13.406;2023-04-27T02:15:05;9.52;;;3.63;;
25962;SDS011;13760;52.588;13.406;2023-04-27T02:17:35;9.57;;;3.15;;
25962;SDS011;13760;52.588;13.406;2023-04-27T02:20:02;13.38;;;3.72;;
25962;SDS011;13760;52.588;13.406;2023-04-27T02:22:30;11.68;;;3.53;;
25962;SDS011;13760;52.588;13.406;2023-04-27T02:24:56;9.93;;;2.92;;
25962;SDS011;13760;52.588;13.406;2023-04-27T02:27:21;10.90;;;3.55;;
25962;SDS011;13760;52.588;13.406;2023-04-27T02:29:47;8.88;;;3.55;;
25962;SDS011;13760;52.588;13.406;2023-04-27T02:32:12;11.95;;;4.07;;
25962;SDS011;13760;52.588;13.406;2023-04-27T02:34:38;9.73;;;3.58;;
25962;SDS011;13760;52.588;13.406;2023-04-27T02:37:03;10.15;;;4.00;;
25962;SDS011;13760;52.588;13.406;2023-04-27T02:39:29;9.85;;;3.80;;
25962;SDS011;13760;52.588;13.406;2023-04-27T02:41:54;9.25;;;3.72;;
25962;SDS011;13760;52.588;13.406;2023-04-27T02:44:20;13.00;;;3.55;;
25962;SDS011;13760;52.588;13.406;2023-04-27T02:46:45;12.48;;;3.58;;
25962;SDS011;13760;52.588;13.406;2023-04-27T02:49:11;11.98;;;3.65;;
25962;SDS011;13760;52.588;13.406;2023-04-27T02:51:36;11.88;;;3.75;;
25962;SDS011;13760;52.588;13.406;2023-04-27T02:54:02;15.15;;;4.30;;
25962;SDS011;13760;52.588;13.406;2023-04-27T02:56:27;8.93;;;3.60;;
25962;SDS011;13760;52.588;13.406;2023-04-27T02:58:53;11.20;;;3.80;;
25962;SDS011;13760;52.588;13.406;2023-04-27T03:01:18;9.95;;;3.60;;
25962;SDS011;13760;52.588;13.406;2023-04-27T03:03:44;10.20;;;3.78;;
25962;SDS011;13760;52.588;13.406;2023-04-27T03:06:13;10.98;;;3.90;;
25962;SDS011;13760;52.588;13.406;2023-04-27T03:08:39;14.35;;;3.85;;
25962;SDS011;13760;52.588;13.406;2023-04-27T03:11:05;17.23;;;3.38;;
25962;SDS011;13760;52.588;13.406;2023-04-27T03:13:31;15.82;;;3.72;;
25962;SDS011;13760;52.588;13.406;2023-04-27T03:16:05;13.82;;;3.70;;
25962;SDS011;13760;52.588;13.406;2023-04-27T03:18:32;13.02;;;3.38;;
25962;SDS011;13760;52.588;13.406;2023-04-27T03:21:31;11.57;;;3.67;;
25962;SDS011;13760;52.588;13.406;2023-04-27T03:23:50;11.20;;;3.40;;
25962;SDS011;13760;52.588;13.406;2023-04-27T03:26:16;9.27;;;3.08;;
25962;SDS011;13760;52.588;13.406;2023-04-27T03:28:42;10.82;;;3.20;;
25962;SDS011;13760;52.588;13.406;2023-04-27T03:31:09;8.18;;;3.10;;
25962;SDS011;13760;52.588;13.406;2023-04-27T03:33:35;11.45;;;3.20;;
25962;SDS011;13760;52.588;13.406;2023-04-27T03:36:02;12.77;;;3.55;;
25962;SDS011;13760;52.588;13.406;2023-04-27T03:38:29;13.52;;;3.28;;
25962;SDS011;13760;52.588;13.406;2023-04-27T03:40:55;8.70;;;3.10;;
25962;SDS011;13760;52.588;13.406;2023-04-27T03:43:21;9.23;;;3.00;;
25962;SDS011;13760;52.588;13.406;2023-04-27T03:45:47;11.43;;;3.47;;
25962;SDS011;13760;52.588;13.406;2023-04-27T03:48:13;9.55;;;3.08;;
25962;SDS011;13760;52.588;13.406;2023-04-27T03:50:39;7.10;;;2.97;;
25962;SDS011;13760;52.588;13.406;2023-04-27T03:53:05;11.48;;;3.13;;
25962;SDS011;13760;52.588;13.406;2023-04-27T03:55:31;6.63;;;2.97;;
25962;SDS011;13760;52.588;13.406;2023-04-27T03:57:56;11.13;;;3.20;;
25962;SDS011;13760;52.588;13.406;2023-04-27T04:00:22;11.65;;;3.10;;
25962;SDS011;13760;52.588;13.406;2023-04-27T04:02:48;9.50;;;3.15;;
25962;SDS011;13760;52.588;13.406;2023-04-27T04:05:13;18.15;;;3.95;;
25962;SDS011;13760;52.588;13.406;2023-04-27T04:07:39;8.18;;;3.13;;
25962;SDS011;13760;52.588;13.406;2023-04-27T04:10:06;9.93;;;3.10;;
25962;SDS011;13760;52.588;13.406;2023-04-27T04:12:32;9.10;;;3.20;;
25962;SDS011;13760;52.588;13.406;2023-04-27T04:14:57;10.75;;;3.22;;
25962;SDS011;13760;52.588;13.406;2023-04-27T04:17:23;17.98;;;3.35;;
25962;SDS011;13760;52.588;13.406;2023-04-27T04:19:48;4.97;;;2.40;;
25962;SDS011;13760;52.588;13.406;2023-04-27T04:22:14;10.93;;;3.05;;
25962;SDS011;13760;52.588;13.406;2023-04-27T04:24:40;10.75;;;3.00;;
25962;SDS011;13760;52.588;13.406;2023-04-27T04:27:05;8.45;;;3.10;;
25962;SDS011;13760;52.588;13.406;2023-04-27T04:29:31;9.13;;;2.97;;
25962;SDS011;13760;52.588;13.406;2023-04-27T04:31:59;8.18;;;2.63;;
25962;SDS011;13760;52.588;13.406;2023-04-27T04:34:27;9.07;;;2.80;;
25962;SDS011;13760;52.588;13.406;2023-04-27T04:36:53;11.68;;;3.22;;
25962;SDS011;13760;52.588;13.406;2023-04-27T04:39:21;6.80;;;3.20;;
25962;SDS011;13760;52.588;13.406;2023-04-27T04:41:47;7.65;;;3.10;;
25962;SDS011;13760;52.588;13.406;2023-04-27T04:44:14;9.60;;;3.08;;
25962;SDS011;13760;52.588;13.406;2023-04-27T04:46:40;11.93;;;3.55;;
25962;SDS011;13760;52.588;13.406;2023-04-27T04:49:06;11.80;;;3.45;;
25962;SDS011;13760;52.588;13.406;2023-04-27T04:51:32;9.13;;;3.30;;
25962;SDS011;13760;52.588;13.406;2023-04-27T04:53:58;9.45;;;3.70;;
25962;SDS011;13760;52.588;13.406;2023-04-27T04:56:23;9.20;;;3.20;;
25962;SDS011;13760;52.588;13.406;2023-04-27T04:58:49;11.10;;;3.45;;
25962;SDS011;13760;52.588;13.406;2023-04-27T05:01:15;8.45;;;3.42;;
25962;SDS011;13760;52.588;13.406;2023-04-27T05:03:41;10.55;;;3.28;;
25962;SDS011;13760;52.588;13.406;2023-04-27T05:06:06;10.43;;;3.30;;
25962;SDS011;13760;52.588;13.406;2023-04-27T05:08:32;10.05;;;3.22;;
25962;SDS011;13760;52.588;13.406;2023-04-27T05:10:58;17.05;;;3.72;;
25962;SDS011;13760;52.588;13.406;2023-04-27T05:13:23;9.27;;;3.70;;
25962;SDS011;13760;52.588;13.406;2023-04-27T05:15:49;6.85;;;3.38;;
25962;SDS011;13760;52.588;13.406;2023-04-27T05:18:16;10.13;;;3.03;;
25962;SDS011;13760;52.588;13.406;2023-04-27T05:20:42;13.38;;;3.67;;
25962;SDS011;13760;52.588;13.406;2023-04-27T05:23:07;9.80;;;3.45;;
25962;SDS011;13760;52.588;13.406;2023-04-27T05:25:33;9.13;;;3.30;;
25962;SDS011;13760;52.588;13.406;2023-04-27T05:28:05;11.30;;;3.30;;
25962;SDS011;13760;52.588;13.406;2023-04-27T05:30:34;11.50;;;3.33;;
25962;SDS011;13760;52.588;13.406;2023-04-27T05:33:01;9.02;;;3.45;;
25962;SDS011;13760;52.588;13.406;2023-04-27T05:35:28;8.07;;;3.08;;
25962;SDS011;13760;52.588;13.406;2023-04-27T05:37:54;11.35;;;3.80;;
25962;SDS011;13760;52.588;13.406;2023-04-27T05:40:20;11.68;;;4.28;;
25962;SDS011;13760;52.588;13.406;2023-04-27T05:42:46;8.35;;;3.33;;
25962;SDS011;13760;52.588;13.406;2023-04-27T05:45:12;11.73;;;3.30;;
25962;SDS011;13760;52.588;13.406;2023-04-27T05:47:38;12.30;;;3.75;;
25962;SDS011;13760;52.588;13.406;2023-04-27T05:50:03;13.57;;;3.92;;
25962;SDS011;13760;52.588;13.406;2023-04-27T05:52:30;13.88;;;4.00;;
25962;SDS011;13760;52.588;13.406;2023-04-27T05:54:56;12.57;;;3.53;;
25962;SDS011;13760;52.588;13.406;2023-04-27T05:57:24;10.38;;;3.83;;
25962;SDS011;13760;52.588;13.406;2023-04-27T05:59:51;11.48;;;3.65;;
25962;SDS011;13760;52.588;13.406;2023-04-27T06:02:16;12.02;;;3.67;;
25962;SDS011;13760;52.588;13.406;2023-04-27T06:04:43;11.90;;;4.00;;
25962;SDS011;13760;52.588;13.406;2023-04-27T06:07:10;10.45;;;3.45;;
25962;SDS011;13760;52.588;13.406;2023-04-27T06:09:36;12.93;;;3.83;;
25962;SDS011;13760;52.588;13.406;2023-04-27T06:12:03;10.55;;;3.40;;
25962;SDS011;13760;52.588;13.406;2023-04-27T06:14:29;12.82;;;4.10;;
25962;SDS011;13760;52.588;13.406;2023-04-27T06:16:55;11.27;;;3.35;;
25962;SDS011;13760;52.588;13.406;2023-04-27T06:19:21;9.27;;;3.05;;
25962;SDS011;13760;52.588;13.406;2023-04-27T06:21:47;7.75;;;3.22;;
25962;SDS011;13760;52.588;13.406;2023-04-27T06:24:15;9.05;;;3.67;;
25962;SDS011;13760;52.588;13.406;2023-04-27T06:26:41;7.13;;;3.10;;
25962;SDS011;13760;52.588;13.406;2023-04-27T06:29:06;12.73;;;3.22;;
25962;SDS011;13760;52.588;13.406;2023-04-27T06:31:32;9.50;;;2.83;;
25962;SDS011;13760;52.588;13.406;2023-04-27T06:33:59;5.82;;;3.10;;
25962;SDS011;13760;52.588;13.406;2023-04-27T06:36:25;11.15;;;2.85;;
25962;SDS011;13760;52.588;13.406;2023-04-27T06:38:54;5.15;;;2.80;;
25962;SDS011;13760;52.588;13.406;2023-04-27T06:41:22;11.98;;;2.90;;
25962;SDS011;13760;52.588;13.406;2023-04-27T06:43:52;9.13;;;2.88;;
25962;SDS011;13760;52.588;13.406;2023-04-27T06:46:18;7.03;;;2.35;;
25962;SDS011;13760;52.588;13.406;2023-04-27T06:48:44;8.77;;;2.97;;
25962;SDS011;13760;52.588;13.406;2023-04-27T06:51:10;9.00;;;2.70;;
25962;SDS011;13760;52.588;13.406;2023-04-27T06:53:37;9.10;;;2.33;;
25962;SDS011;13760;52.588;13.406;2023-04-27T06:56:05;7.63;;;2.63;;
25962;SDS011;13760;52.588;13.406;2023-04-27T06:58:33;8.45;;;2.45;;
25962;SDS011;13760;52.588;13.406;2023-04-27T07:01:02;7.53;;;2.50;;
25962;SDS011;13760;52.588;13.406;2023-04-27T07:03:29;10.07;;;2.90;;
25962;SDS011;13760;52.588;13.406;2023-04-27T07:05:55;13.77;;;2.85;;
25962;SDS011;13760;52.588;13.406;2023-04-27T07:08:23;7.32;;;2.60;;
25962;SDS011;13760;52.588;13.406;2023-04-27T07:10:48;7.22;;;2.70;;
25962;SDS011;13760;52.588;13.406;2023-04-27T07:13:14;5.32;;;2.88;;
25962;SDS011;13760;52.588;13.406;2023-04-27T07:15:40;7.45;;;2.50;;
25962;SDS011;13760;52.588;13.406;2023-04-27T07:18:05;8.52;;;2.60;;
25962;SDS011;13760;52.588;13.406;2023-04-27T07:20:31;7.05;;;2.50;;
25962;SDS011;13760;52.588;13.406;2023-04-27T07:22:57;6.70;;;2.22;;
25962;SDS011;13760;52.588;13.406;2023-04-27T07:25:22;6.55;;;2.45;;
25962;SDS011;13760;52.588;13.406;2023-04-27T07:27:48;6.45;;;2.60;;
25962;SDS011;13760;52.588;13.406;2023-04-27T07:30:26;7.22;;;2.45;;
25962;SDS011;13760;52.588;13.406;2023-04-27T07:33:00;7.90;;;2.17;;
25962;SDS011;13760;52.588;13.406;2023-04-27T07:35:26;5.05;;;2.60;;
25962;SDS011;13760;52.588;13.406;2023-04-27T07:37:52;8.77;;;2.67;;
25962;SDS011;13760;52.588;13.406;2023-04-27T07:40:17;8.85;;;2.50;;
25962;SDS011;13760;52.588;13.406;2023-04-27T07:42:43;6.63;;;2.38;;
25962;SDS011;13760;52.588;13.406;2023-04-27T07:45:12;8.57;;;2.22;;
25962;SDS011;13760;52.588;13.406;2023-04-27T07:47:38;6.70;;;2.38;;
25962;SDS011;13760;52.588;13.406;2023-04-27T07:50:05;8.23;;;2.40;;
25962;SDS011;13760;52.588;13.406;2023-04-27T07:52:37;7.22;;;2.17;;
25962;SDS011;13760;52.588;13.406;2023-04-27T07:55:03;14.85;;;2.72;;
25962;SDS011;13760;52.588;13.406;2023-04-27T07:57:29;10.45;;;2.40;;
25962;SDS011;13760;52.588;13.406;2023-04-27T07:59:55;5.55;;;2.28;;
25962;SDS011;13760;52.588;13.406;2023-04-27T08:02:25;10.52;;;2.13;;
25962;SDS011;13760;52.588;13.406;2023-04-27T08:05:01;4.88;;;2.05;;
25962;SDS011;13760;52.588;13.406;2023-04-27T08:07:27;5.75;;;2.28;;
25962;SDS011;13760;52.588;13.406;2023-04-27T08:09:52;8.13;;;2.25;;
25962;SDS011;13760;52.588;13.406;2023-04-27T08:12:26;6.60;;;2.42;;
25962;SDS011;13760;52.588;13.406;2023-04-27T08:14:57;5.40;;;2.10;;
25962;SDS011;13760;52.588;13.406;2023-04-27T08:17:23;3.47;;;2.00;;
25962;SDS011;13760;52.588;13.406;2023-04-27T08:19:57;8.43;;;2.40;;
25962;SDS011;13760;52.588;13.406;2023-04-27T08:22:33;4.05;;;2.15;;
25962;SDS011;13760;52.588;13.406;2023-04-27T08:25:06;9.20;;;2.25;;
25962;SDS011;13760;52.588;13.406;2023-04-27T08:27:41;4.20;;;2.00;;
25962;SDS011;13760;52.588;13.406;2023-04-27T08:30:10;6.00;;;2.30;;
25962;SDS011;13760;52.588;13.406;2023-04-27T08:32:40;9.18;;;2.60;;
25962;SDS011;13760;52.588;13.406;2023-04-27T08:35:06;5.55;;;1.90;;
25962;SDS011;13760;52.588;13.406;2023-04-27T08:37:32;5.30;;;2.08;;
25962;SDS011;13760;52.588;13.406;2023-04-27T08:39:57;6.43;;;1.90;;
25962;SDS011;13760;52.588;13.406;2023-04-27T08:42:23;4.90;;;1.60;;
25962;SDS011;13760;52.588;13.406;2023-04-27T08:44:49;9.02;;;2.40;;
25962;SDS011;13760;52.588;13.406;2023-04-27T08:47:16;6.88;;;2.47;;
25962;SDS011;13760;52.588;13.406;2023-04-27T08:49:42;7.03;;;2.40;;
25962;SDS011;13760;52.588;13.406;2023-04-27T08:52:12;5.72;;;2.10;;
25962;SDS011;13760;52.588;13.406;2023-04-27T08:54:39;5.78;;;2.00;;
25962;SDS011;13760;52.588;13.406;2023-04-27T08:57:11;10.05;;;2.25;;
25962;SDS011;13760;52.588;13.406;2023-04-27T08:59:40;6.30;;;2.10;;
25962;SDS011;13760;52.588;13.406;2023-04-27T09:02:18;5.32;;;1.83;;
25962;SDS011;13760;52.588;13.406;2023-04-27T09:04:44;5.35;;;1.95;;
25962;SDS011;13760;52.588;13.406;2023-04-27T09:07:19;4.25;;;1.80;;
25962;SDS011;13760;52.588;13.406;2023-04-27T09:09:44;4.63;;;1.83;;
25962;SDS011;13760;52.588;13.406;2023-04-27T09:12:16;3.38;;;1.80;;
25962;SDS011;13760;52.588;13.406;2023-04-27T09:14:43;5.32;;;2.15;;
25962;SDS011;13760;52.588;13.406;2023-04-27T09:17:23;3.78;;;1.70;;
25962;SDS011;13760;52.588;13.406;2023-04-27T09:20:13;8.65;;;2.15;;
25962;SDS011;13760;52.588;13.406;2023-04-27T09:22:45;7.57;;;2.25;;
25962;SDS011;13760;52.588;13.406;2023-04-27T09:25:28;5.97;;;2.10;;
25962;SDS011;13760;52.588;13.406;2023-04-27T09:27:59;5.68;;;2.17;;
25962;SDS011;13760;52.588;13.406;2023-04-27T09:30:25;7.00;;;2.40;;
25962;SDS011;13760;52.588;13.406;2023-04-27T09:32:58;6.43;;;2.60;;
25962;SDS011;13760;52.588;13.406;2023-04-27T09:35:29;7.22;;;2.30;;
25962;SDS011;13760;52.588;13.406;2023-04-27T09:37:57;8.82;;;2.17;;
25962;SDS011;13760;52.588;13.406;2023-04-27T09:40:23;7.07;;;2.30;;
25962;SDS011;13760;52.588;13.406;2023-04-27T09:42:52;5.50;;;1.80;;
25962;SDS011;13760;52.588;13.406;2023-04-27T09:45:19;4.85;;;1.60;;
25962;SDS011;13760;52.588;13.406;2023-04-27T09:47:45;5.07;;;1.65;;
25962;SDS011;13760;52.588;13.406;2023-04-27T09:50:14;4.60;;;1.55;;
25962;SDS011;13760;52.588;13.406;2023-04-27T09:52:40;4.18;;;1.75;;
25962;SDS011;13760;52.588;13.406;2023-04-27T09:55:07;4.95;;;1.55;;
25962;SDS011;13760;52.588;13.406;2023-04-27T09:57:36;4.82;;;2.08;;
25962;SDS011;13760;52.588;13.406;2023-04-27T10:00:28;5.82;;;1.90;;
25962;SDS011;13760;52.588;13.406;2023-04-27T10:08:28;8.95;;;2.35;;
25962;SDS011;13760;52.588;13.406;2023-04-27T10:10:54;11.02;;;2.40;;
25962;SDS011;13760;52.588;13.406;2023-04-27T10:13:20;3.58;;;1.67;;
25962;SDS011;13760;52.588;13.406;2023-04-27T10:15:47;3.90;;;1.92;;
25962;SDS011;13760;52.588;13.406;2023-04-27T10:18:12;2.25;;;1.30;;
25962;SDS011;13760;52.588;13.406;2023-04-27T10:20:55;3.88;;;1.40;;
25962;SDS011;13760;52.588;13.406;2023-04-27T10:23:33;4.38;;;1.80;;
25962;SDS011;13760;52.588;13.406;2023-04-27T10:26:24;4.35;;;1.75;;
25962;SDS011;13760;52.588;13.406;2023-04-27T10:29:13;8.98;;;1.80;;
25962;SDS011;13760;52.588;13.406;2023-04-27T10:31:46;4.57;;;1.42;;
25962;SDS011;13760;52.588;13.406;2023-04-27T10:34:16;4.13;;;1.50;;
25962;SDS011;13760;52.588;13.406;2023-04-27T10:36:42;11.13;;;2.13;;
25962;SDS011;13760;52.588;13.406;2023-04-27T10:39:18;3.38;;;1.50;;
25962;SDS011;13760;52.588;13.406;2023-04-27T10:41:53;4.70;;;1.63;;
25962;SDS011;13760;52.588;13.406;2023-04-27T10:44:24;4.85;;;1.60;;
25962;SDS011;13760;52.588;13.406;2023-04-27T10:46:55;5.57;;;1.80;;
25962;SDS011;13760;52.588;13.406;2023-04-27T10:49:23;3.05;;;1.67;;
25962;SDS011;13760;52.588;13.406;2023-04-27T10:51:51;3.88;;;1.60;;
25962;SDS011;13760;52.588;13.406;2023-04-27T10:54:16;6.28;;;1.70;;
25962;SDS011;13760;52.588;13.406;2023-04-27T10:56:43;4.30;;;1.52;;
25962;SDS011;13760;52.588;13.406;2023-04-27T10:59:08;3.95;;;1.40;;
25962;SDS011;13760;52.588;13.406;2023-04-27T11:01:34;2.88;;;1.75;;
25962;SDS011;13760;52.588;13.406;2023-04-27T11:04:01;5.82;;;1.38;;
25962;SDS011;13760;52.588;13.406;2023-04-27T11:06:28;3.72;;;1.50;;
25962;SDS011;13760;52.588;13.406;2023-04-27T11:08:54;6.60;;;1.80;;
25962;SDS011;13760;52.588;13.406;2023-04-27T11:11:20;5.25;;;1.50;;
25962;SDS011;13760;52.588;13.406;2023-04-27T11:13:49;3.95;;;1.20;;
25962;SDS011;13760;52.588;13.406;2023-04-27T11:16:44;10.18;;;2.28;;
25962;SDS011;13760;52.588;13.406;2023-04-27T11:19:57;5.63;;;1.80;;
25962;SDS011;13760;52.588;13.406;2023-04-27T11:22:47;4.88;;;1.52;;
25962;SDS011;13760;52.588;13.406;2023-04-27T11:25:26;2.85;;;1.60;;
25962;SDS011;13760;52.588;13.406;2023-04-27T11:35:39;2.78;;;1.17;;
25962;SDS011;13760;52.588;13.406;2023-04-27T11:41:37;6.18;;;1.58;;
25962;SDS011;13760;52.588;13.406;2023-04-27T11:58:48;6.05;;;1.75;;
25962;SDS011;13760;52.588;13.406;2023-04-27T12:01:14;4.35;;;1.70;;
25962;SDS011;13760;52.588;13.406;2023-04-27T12:03:40;7.82;;;1.92;;
25962;SDS011;13760;52.588;13.406;2023-04-27T12:06:09;5.22;;;1.67;;
25962;SDS011;13760;52.588;13.406;2023-04-27T12:08:35;6.55;;;1.40;;
25962;SDS011;13760;52.588;13.406;2023-04-27T12:11:04;5.00;;;1.98;;
25962;SDS011;13760;52.588;13.406;2023-04-27T12:16:40;6.30;;;1.40;;
25962;SDS011;13760;52.588;13.406;2023-04-27T12:19:06;3.15;;;1.38;;
25962;SDS011;13760;52.588;13.406;2023-04-27T12:21:32;4.75;;;1.60;;
25962;SDS011;13760;52.588;13.406;2023-04-27T12:24:01;9.75;;;1.70;;
25962;SDS011;13760;52.588;13.406;2023-04-27T12:26:26;6.95;;;1.88;;
25962;SDS011;13760;52.588;13.406;2023-04-27T12:28:53;3.58;;;1.77;;
25962;SDS011;13760;52.588;13.406;2023-04-27T12:31:18;4.70;;;1.42;;
25962;SDS011;13760;52.588;13.406;2023-04-27T12:33:48;5.40;;;1.60;;
25962;SDS011;13760;52.588;13.406;2023-04-27T12:36:15;6.13;;;1.85;;
25962;SDS011;13760;52.588;13.406;2023-04-27T12:38:41;5.10;;;2.00;;
25962;SDS011;13760;52.588;13.406;2023-04-27T12:41:07;5.30;;;2.00;;
25962;SDS011;13760;52.588;13.406;2023-04-27T12:43:32;3.58;;;1.83;;
25962;SDS011;13760;52.588;13.406;2023-04-27T12:46:00;3.13;;;1.73;;
25962;SDS011;13760;52.588;13.406;2023-04-27T12:48:26;9.95;;;1.70;;
25962;SDS011;13760;52.588;13.406;2023-04-27T12:50:51;5.88;;;1.30;;
25962;SDS011;13760;52.588;13.406;2023-04-27T12:53:17;5.38;;;1.60;;
25962;SDS011;13760;52.588;13.406;2023-04-27T12:55:42;3.83;;;1.35;;
25962;SDS011;13760;52.588;13.406;2023-04-27T12:58:08;5.07;;;1.52;;
25962;SDS011;13760;52.588;13.406;2023-04-27T13:00:34;4.28;;;1.40;;
25962;SDS011;13760;52.588;13.406;2023-04-27T13:02:59;3.22;;;1.58;;
25962;SDS011;13760;52.588;13.406;2023-04-27T13:05:25;4.05;;;1.60;;
25962;SDS011;13760;52.588;13.406;2023-04-27T13:07:51;4.30;;;1.23;;
25962;SDS011;13760;52.588;13.406;2023-04-27T13:10:16;3.83;;;1.38;;
25962;SDS011;13760;52.588;13.406;2023-04-27T13:12:42;5.43;;;1.67;;
25962;SDS011;13760;52.588;13.406;2023-04-27T13:15:08;2.55;;;1.40;;
25962;SDS011;13760;52.588;13.406;2023-04-27T13:17:33;4.40;;;1.55;;
25962;SDS011;13760;52.588;13.406;2023-04-27T13:19:59;3.80;;;1.70;;
25962;SDS011;13760;52.588;13.406;2023-04-27T13:22:25;4.97;;;1.75;;
25962;SDS011;13760;52.588;13.406;2023-04-27T13:24:50;2.45;;;1.10;;
25962;SDS011;13760;52.588;13.406;2023-04-27T13:27:16;5.18;;;1.42;;
25962;SDS011;13760;52.588;13.406;2023-04-27T13:29:41;3.17;;;1.48;;
25962;SDS011;13760;52.588;13.406;2023-04-27T13:32:07;4.07;;;1.30;;
25962;SDS011;13760;52.588;13.406;2023-04-27T13:34:33;2.63;;;1.10;;
25962;SDS011;13760;52.588;13.406;2023-04-27T13:36:58;3.42;;;1.50;;
25962;SDS011;13760;52.588;13.406;2023-04-27T13:39:24;4.22;;;1.42;;
25962;SDS011;13760;52.588;13.406;2023-04-27T13:41:50;2.92;;;1.33;;
25962;SDS011;13760;52.588;13.406;2023-04-27T13:44:15;7.03;;;1.50;;
25962;SDS011;13760;52.588;13.406;2023-04-27T13:46:41;4.22;;;1.55;;
25962;SDS011;13760;52.588;13.406;2023-04-27T13:49:07;3.53;;;1.40;;
25962;SDS011;13760;52.588;13.406;2023-04-27T13:51:32;5.20;;;1.50;;
25962;SDS011;13760;52.588;13.406;2023-04-27T13:53:58;4.10;;;1.50;;
25962;SDS011;13760;52.588;13.406;2023-04-27T13:56:24;5.78;;;1.52;;
25962;SDS011;13760;52.588;13.406;2023-04-27T13:58:49;4.15;;;1.70;;
25962;SDS011;13760;52.588;13.406;2023-04-27T14:01:17;3.95;;;1.30;;
25962;SDS011;13760;52.588;13.406;2023-04-27T14:03:43;5.70;;;1.50;;
25962;SDS011;13760;52.588;13.406;2023-04-27T14:06:09;5.15;;;1.38;;
25962;SDS011;13760;52.588;13.406;2023-04-27T14:08:35;3.28;;;1.40;;
25962;SDS011;13760;52.588;13.406;2023-04-27T14:11:00;5.00;;;1.90;;
25962;SDS011;13760;52.588;13.406;2023-04-27T14:13:26;6.55;;;1.52;;
25962;SDS011;13760;52.588;13.406;2023-04-27T14:15:51;5.22;;;1.30;;
25962;SDS011;13760;52.588;13.406;2023-04-27T14:18:20;5.93;;;1.60;;
25962;SDS011;13760;52.588;13.406;2023-04-27T14:20:45;6.78;;;1.40;;
25962;SDS011;13760;52.588;13.406;2023-04-27T14:23:11;6.53;;;1.77;;
25962;SDS011;13760;52.588;13.406;2023-04-27T14:25:37;4.75;;;1.60;;
25962;SDS011;13760;52.588;13.406;2023-04-27T14:28:04;3.30;;;1.65;;
25962;SDS011;13760;52.588;13.406;2023-04-27T14:30:33;2.75;;;1.50;;
25962;SDS011;13760;52.588;13.406;2023-04-27T14:32:59;3.10;;;1.60;;
25962;SDS011;13760;52.588;13.406;2023-04-27T14:35:25;4.43;;;1.50;;
25962;SDS011;13760;52.588;13.406;2023-04-27T14:37:51;6.00;;;1.50;;
25962;SDS011;13760;52.588;13.406;2023-04-27T14:40:17;4.18;;;1.58;;
25962;SDS011;13760;52.588;13.406;2023-04-27T14:42:43;2.55;;;1.38;;
25962;SDS011;13760;52.588;13.406;2023-04-27T14:45:09;4.55;;;1.17;;
25962;SDS011;13760;52.588;13.406;2023-04-27T14:47:35;7.05;;;1.98;;
25962;SDS011;13760;52.588;13.406;2023-04-27T14:50:01;3.97;;;1.50;;
25962;SDS011;13760;52.588;13.406;2023-04-27T14:52:27;4.68;;;1.40;;
25962;SDS011;13760;52.588;13.406;2023-04-27T14:54:53;3.22;;;1.63;;
25962;SDS011;13760;52.588;13.406;2023-04-27T14:57:18;3.25;;;1.50;;
25962;SDS011;13760;52.588;13.406;2023-04-27T14:59:44;5.38;;;1.60;;
25962;SDS011;13760;52.588;13.406;2023-04-27T15:02:09;4.03;;;1.45;;
25962;SDS011;13760;52.588;13.406;2023-04-27T15:04:35;6.97;;;2.03;;
25962;SDS011;13760;52.588;13.406;2023-04-27T15:07:04;5.15;;;1.60;;